Time;durP1;ratioP1;P1;durP2;ratioP2;P2;SDS_P1;SDS_P2;PMS_P1;PMS_P2;Temp;Humidity;BMP_temperature;BMP_pressure;BME280_temperature;BME280_humidity;BME280_pressure;Samples;Min_cycle;Max_cycle;Signal;HPM_P1;HPM_P2
2023/01/26 00:00:50;;;;;;;117.53;50.75;;;0.80;99.90;;;;;;4086598;28;20063;-66
2023/01/26 00:02:51;;;;;;;109.32;47.42;;;0.80;99.90;;;;;;4086507;28;20543;-66
2023/01/26 00:04:51;;;;;;;106.68;48.25;;;0.80;99.90;;;;;;4085245;28;20051;-66
2023/01/26 00:06:52;;;;;;;114.43;50.78;;;0.90;99.90;;;;;;4085554;28;20043;-66
2023/01/26 00:08:55;;;;;;;117.75;50.88;;;0.80;99.90;;;;;;4093642;28;20380;-67
2023/01/26 00:10:55;;;;;;;113.07;49.55;;;0.80;99.90;;;;;;4086514;28;20083;-66
2023/01/26 00:12:56;;;;;;;116.15;49.08;;;0.80;99.90;;;;;;4093997;28;20031;-66
2023/01/26 00:14:57;;;;;;;109.00;47.40;;;0.90;99.90;;;;;;4078073;29;20031;-66
2023/01/26 00:16:58;;;;;;;106.25;45.90;;;0.90;99.90;;;;;;4086297;28;20039;-66
2023/01/26 00:18:59;;;;;;;115.55;50.85;;;0.90;99.90;;;;;;4087113;28;20035;-66
2023/01/26 00:21:01;;;;;;;100.43;42.67;;;0.90;99.90;;;;;;4093116;28;20035;-66
2023/01/26 00:23:02;;;;;;;102.88;45.80;;;0.90;99.90;;;;;;4094565;28;20674;-66
2023/01/26 00:25:03;;;;;;;107.88;46.67;;;0.90;99.90;;;;;;4095474;28;20202;-68
2023/01/26 00:27:03;;;;;;;107.85;47.25;;;0.90;99.90;;;;;;4086687;28;20502;-66
2023/01/26 00:29:05;;;;;;;118.88;49.45;;;1.00;99.90;;;;;;4094994;28;20042;-66
2023/01/26 00:31:12;;;;;;;115.97;48.75;;;1.00;99.90;;;;;;4077955;29;20043;-65
2023/01/26 00:33:13;;;;;;;104.78;45.53;;;1.00;99.90;;;;;;4094580;28;20386;-66
2023/01/26 00:35:13;;;;;;;97.72;44.55;;;1.00;99.90;;;;;;4090216;28;20039;-67
2023/01/26 00:37:14;;;;;;;97.63;43.08;;;1.00;99.90;;;;;;4095237;28;20055;-66
2023/01/26 00:39:14;;;;;;;104.20;46.72;;;1.10;99.90;;;;;;4095747;28;20043;-66
2023/01/26 00:43:34;;;;;;;105.22;44.67;;;1.00;99.90;;;;;;4086731;29;20051;-66
2023/01/26 00:45:35;;;;;;;101.00;45.40;;;1.10;99.90;;;;;;4087735;28;20050;-66
2023/01/26 00:47:35;;;;;;;104.05;44.60;;;1.10;99.90;;;;;;4093917;28;20086;-66
2023/01/26 00:49:36;;;;;;;108.38;47.45;;;1.10;99.90;;;;;;4097555;28;20525;-67
2023/01/26 00:51:37;;;;;;;105.13;46.10;;;1.10;99.90;;;;;;4093832;28;20475;-66
2023/01/26 00:53:37;;;;;;;103.40;45.80;;;1.10;99.90;;;;;;4094452;28;20067;-66
2023/01/26 00:55:38;;;;;;;98.65;44.92;;;1.10;99.90;;;;;;4092286;28;20506;-66
2023/01/26 00:57:39;;;;;;;109.30;47.72;;;1.20;99.90;;;;;;4094185;28;20043;-66
2023/01/26 00:59:39;;;;;;;109.43;47.25;;;1.20;99.90;;;;;;4095096;28;20043;-66
2023/01/26 01:01:40;;;;;;;100.15;44.58;;;1.20;99.90;;;;;;4093286;28;20035;-66
2023/01/26 01:03:40;;;;;;;98.93;44.47;;;1.30;99.90;;;;;;4093388;28;20042;-66
2023/01/26 01:05:41;;;;;;;107.65;46.70;;;1.30;99.90;;;;;;4093746;28;20499;-66
2023/01/26 01:07:41;;;;;;;97.65;44.78;;;1.30;99.90;;;;;;4094711;28;20067;-66
2023/01/26 01:09:44;;;;;;;96.30;44.72;;;1.30;99.90;;;;;;4093739;28;20094;-66
2023/01/26 01:11:46;;;;;;;93.22;43.15;;;1.30;99.90;;;;;;4095357;28;20054;-66
2023/01/26 01:13:46;;;;;;;97.43;43.25;;;1.30;99.90;;;;;;4093694;28;20122;-66
2023/01/26 01:15:47;;;;;;;103.03;45.15;;;1.40;99.90;;;;;;4092609;28;20039;-66
2023/01/26 01:17:48;;;;;;;96.53;43.15;;;1.30;99.90;;;;;;4095104;28;20448;-66
2023/01/26 01:19:48;;;;;;;94.18;43.70;;;1.30;99.90;;;;;;4096781;28;20422;-66
2023/01/26 01:21:49;;;;;;;96.75;45.80;;;1.30;99.90;;;;;;4097306;28;20172;-66
2023/01/26 01:23:49;;;;;;;99.72;45.20;;;1.30;99.90;;;;;;4098266;28;20035;-66
2023/01/26 01:25:58;;;;;;;94.28;42.63;;;1.30;99.90;;;;;;4095288;28;20051;-66
2023/01/26 01:27:58;;;;;;;100.07;45.30;;;1.20;99.90;;;;;;4094158;28;20050;-66
2023/01/26 01:29:59;;;;;;;102.80;46.50;;;1.20;99.90;;;;;;4097286;28;20398;-66
2023/01/26 01:31:59;;;;;;;100.28;44.50;;;1.30;99.90;;;;;;4096060;28;20059;-66
2023/01/26 01:34:00;;;;;;;101.03;46.28;;;1.20;99.90;;;;;;4097791;28;20075;-66
2023/01/26 01:36:03;;;;;;;106.80;47.38;;;1.20;99.90;;;;;;4095482;28;20042;-66
2023/01/26 01:38:04;;;;;;;109.00;46.63;;;1.20;99.90;;;;;;4101838;28;20051;-66
2023/01/26 01:40:05;;;;;;;104.35;47.20;;;1.10;99.90;;;;;;4096938;28;20415;-67
2023/01/26 01:42:06;;;;;;;109.05;49.35;;;1.20;99.90;;;;;;4097920;28;20098;-66
2023/01/26 01:44:15;;;;;;;96.10;43.13;;;1.10;99.90;;;;;;4095372;28;20035;-67
2023/01/26 01:46:34;;;;;;;105.22;46.70;;;1.10;99.90;;;;;;4095775;28;20110;-66
2023/01/26 01:48:53;;;;;;;97.68;44.08;;;1.20;99.90;;;;;;4091057;28;20441;-66
2023/01/26 01:50:58;;;;;;;94.38;41.50;;;1.20;99.90;;;;;;4092524;28;20089;-66
2023/01/26 01:52:59;;;;;;;103.40;44.33;;;1.20;99.90;;;;;;4097248;28;20050;-66
2023/01/26 01:55:07;;;;;;;89.95;41.92;;;1.20;99.90;;;;;;4097988;28;20037;-66
2023/01/26 01:57:17;;;;;;;91.70;40.13;;;1.30;99.90;;;;;;4096799;28;20055;-67
2023/01/26 01:59:20;;;;;;;92.68;44.08;;;1.30;99.90;;;;;;4097507;28;20044;-67
2023/01/26 02:01:20;;;;;;;95.88;42.47;;;1.30;99.90;;;;;;4093370;28;20040;-67
2023/01/26 02:03:21;;;;;;;97.20;43.40;;;1.40;99.90;;;;;;4096264;28;20071;-67
2023/01/26 02:05:31;;;;;;;91.47;41.00;;;1.40;99.90;;;;;;4092561;28;21488;-67
2023/01/26 02:07:32;;;;;;;97.65;44.60;;;1.40;99.90;;;;;;4090483;28;20082;-67
2023/01/26 02:11:56;;;;;;;89.63;40.50;;;1.40;99.90;;;;;;4094915;28;20062;-68
2023/01/26 02:13:58;;;;;;;94.75;43.08;;;1.40;99.90;;;;;;4089717;28;20044;-67
2023/01/26 02:15:59;;;;;;;92.88;41.30;;;1.40;99.90;;;;;;4091351;28;20461;-67
2023/01/26 02:18:03;;;;;;;94.10;42.25;;;1.40;99.90;;;;;;4101026;28;20039;-67
2023/01/26 02:20:27;;;;;;;96.38;42.78;;;1.40;99.90;;;;;;4094241;28;20077;-68
2023/01/26 02:23:04;;;;;;;93.18;42.30;;;1.50;99.90;;;;;;4095111;28;20050;-67
2023/01/26 02:25:36;;;;;;;98.25;44.20;;;1.50;99.90;;;;;;4080851;28;20066;-68
2023/01/26 02:27:36;;;;;;;101.75;43.72;;;1.50;99.90;;;;;;4059584;29;20067;-67
2023/01/26 02:29:37;;;;;;;99.07;46.75;;;1.60;99.90;;;;;;4091101;28;20046;-67
2023/01/26 02:31:39;;;;;;;103.93;45.25;;;1.60;99.90;;;;;;4078217;29;20047;-68
2023/01/26 02:33:40;;;;;;;108.68;46.75;;;1.50;99.90;;;;;;4095410;28;20050;-67
2023/01/26 02:35:41;;;;;;;104.45;45.58;;;1.50;99.90;;;;;;4095819;28;20466;-67
2023/01/26 02:37:41;;;;;;;104.70;46.20;;;1.30;99.90;;;;;;4096164;28;20043;-67
2023/01/26 02:39:51;;;;;;;94.93;42.08;;;1.20;99.90;;;;;;4093438;28;20046;-67
2023/01/26 02:44:13;;;;;;;102.13;43.95;;;1.30;99.90;;;;;;4086672;28;20368;-67
2023/01/26 02:46:13;;;;;;;102.43;43.72;;;1.30;99.90;;;;;;4085348;29;20039;-67
2023/01/26 02:49:45;;;;;;;102.47;44.53;;;1.30;99.90;;;;;;4089265;28;20032;-67
2023/01/26 02:50:35;;;;;;;84.28;38.38;;;1.30;99.90;;;;;;4091381;28;20047;-67
2023/01/26 02:52:36;;;;;;;101.75;43.80;;;1.30;99.90;;;;;;4095729;28;20390;-67
2023/01/26 02:56:55;;;;;;;92.90;41.50;;;1.40;99.90;;;;;;4093066;28;20125;-68
2023/01/26 02:58:56;;;;;;;85.50;38.17;;;1.40;99.90;;;;;;4092927;28;20066;-67
2023/01/26 03:00:56;;;;;;;96.75;41.58;;;1.40;99.90;;;;;;4096786;28;20525;-67
2023/01/26 03:03:00;;;;;;;91.22;39.85;;;1.40;99.90;;;;;;4095477;28;20455;-67
2023/01/26 03:05:00;;;;;;;96.78;43.15;;;1.50;99.90;;;;;;4093711;28;20051;-67
2023/01/26 03:07:01;;;;;;;89.13;39.10;;;1.50;99.90;;;;;;4093819;28;20079;-67
2023/01/26 03:09:02;;;;;;;90.05;39.13;;;1.50;99.90;;;;;;4095459;28;20057;-67
2023/01/26 03:11:04;;;;;;;87.10;38.25;;;1.50;99.90;;;;;;4092774;28;20481;-67
2023/01/26 03:13:05;;;;;;;85.13;38.17;;;1.60;99.90;;;;;;4096927;28;20047;-67
2023/01/26 03:17:26;;;;;;;89.55;39.92;;;1.60;99.90;;;;;;4095284;28;20047;-67
2023/01/26 03:28:49;;;;;;;96.40;43.28;;;1.70;99.90;;;;;;4096047;28;20066;-67
2023/01/26 03:30:52;;;;;;;92.45;40.58;;;1.80;99.90;;;;;;4094652;28;20447;-67
2023/01/26 03:32:53;;;;;;;83.75;38.67;;;1.80;99.90;;;;;;4095895;28;20340;-67
2023/01/26 03:34:53;;;;;;;87.03;38.53;;;1.80;99.90;;;;;;4095192;28;20122;-67
2023/01/26 03:36:54;;;;;;;86.72;37.72;;;1.80;99.90;;;;;;4095116;28;20039;-67
2023/01/26 03:38:55;;;;;;;99.47;43.20;;;1.80;99.90;;;;;;4095701;28;20094;-67
2023/01/26 03:57:28;;;;;;;86.72;37.40;;;1.90;99.90;;;;;;4092522;28;20049;-67
2023/01/26 03:59:38;;;;;;;89.55;40.13;;;1.90;99.90;;;;;;4094696;28;20039;-68
2023/01/26 04:08:39;;;;;;;89.85;40.05;;;1.90;99.90;;;;;;4088273;28;20040;-68
2023/01/26 04:10:40;;;;;;;92.05;40.55;;;1.90;99.90;;;;;;4085651;28;20039;-68
2023/01/26 04:12:40;;;;;;;84.40;39.28;;;1.90;99.90;;;;;;4081907;28;20123;-68
2023/01/26 04:21:40;;;;;;;78.63;35.97;;;1.90;99.90;;;;;;4089495;28;20035;-68
2023/01/26 04:23:41;;;;;;;78.00;36.35;;;1.90;99.90;;;;;;4093918;28;20122;-67
2023/01/26 04:25:41;;;;;;;88.07;40.03;;;2.00;99.90;;;;;;4092935;28;20047;-68
2023/01/26 04:27:42;;;;;;;87.55;38.83;;;2.00;99.90;;;;;;4088378;28;20363;-67
2023/01/26 04:29:43;;;;;;;79.90;36.15;;;2.00;99.90;;;;;;4088856;28;20039;-67
2023/01/26 04:31:44;;;;;;;76.07;35.88;;;2.00;99.90;;;;;;4087357;28;20040;-68
2023/01/26 04:33:44;;;;;;;79.60;36.03;;;2.00;99.90;;;;;;4090845;28;20035;-68
2023/01/26 04:35:45;;;;;;;85.03;38.85;;;2.00;99.90;;;;;;4088650;28;20039;-68
2023/01/26 04:37:46;;;;;;;86.05;39.00;;;2.00;99.90;;;;;;4093945;28;20043;-68
2023/01/26 04:39:47;;;;;;;80.65;37.13;;;2.00;99.90;;;;;;4094285;28;20046;-67
2023/01/26 04:41:47;;;;;;;84.05;38.30;;;2.10;99.90;;;;;;4088808;28;20035;-67
2023/01/26 04:43:48;;;;;;;93.32;41.47;;;2.10;99.90;;;;;;4095332;28;20047;-68
2023/01/26 04:46:00;;;;;;;93.25;42.67;;;2.10;99.90;;;;;;4092689;28;20086;-67
2023/01/26 04:48:00;;;;;;;93.65;43.28;;;2.10;99.90;;;;;;4091357;28;21649;-68
2023/01/26 04:50:01;;;;;;;88.13;40.17;;;2.10;99.90;;;;;;4092417;28;20067;-68
2023/01/26 04:52:01;;;;;;;85.65;39.92;;;2.10;99.90;;;;;;4091517;28;20067;-67
2023/01/26 04:54:02;;;;;;;83.72;38.30;;;2.10;99.90;;;;;;4088647;28;20044;-67
2023/01/26 04:56:03;;;;;;;81.93;36.60;;;2.10;99.90;;;;;;4078806;28;20060;-67
2023/01/26 04:58:03;;;;;;;85.72;38.45;;;2.20;99.90;;;;;;4095201;28;20051;-68
2023/01/26 05:00:05;;;;;;;82.32;37.30;;;2.20;99.90;;;;;;4094231;28;20050;-69
2023/01/26 05:02:05;;;;;;;85.32;39.33;;;2.20;99.90;;;;;;4081015;29;20479;-68
2023/01/26 05:04:06;;;;;;;84.03;38.20;;;2.20;99.90;;;;;;4092673;28;20036;-68
2023/01/26 05:06:07;;;;;;;80.38;37.40;;;2.20;99.90;;;;;;4092606;28;20077;-67
2023/01/26 05:08:07;;;;;;;74.32;34.05;;;2.20;99.90;;;;;;4092422;28;20494;-67
2023/01/26 05:10:08;;;;;;;89.85;40.28;;;2.20;99.90;;;;;;4092842;28;20031;-68
2023/01/26 05:14:28;;;;;;;88.32;39.75;;;2.20;99.90;;;;;;4088796;28;20524;-67
2023/01/26 05:16:29;;;;;;;90.30;39.90;;;2.20;99.90;;;;;;4089327;28;20066;-67
2023/01/26 05:18:30;;;;;;;86.35;39.03;;;2.20;99.90;;;;;;4093061;28;20047;-67
2023/01/26 05:20:31;;;;;;;86.88;40.08;;;2.20;99.90;;;;;;4092233;28;20050;-67
2023/01/26 05:22:32;;;;;;;87.15;40.65;;;2.20;99.90;;;;;;4093428;28;20043;-67
2023/01/26 05:24:32;;;;;;;84.70;37.97;;;2.20;99.90;;;;;;4092434;28;20422;-67
2023/01/26 05:26:33;;;;;;;82.55;38.38;;;2.20;99.90;;;;;;4083594;28;20102;-67
2023/01/26 05:28:34;;;;;;;83.55;37.20;;;2.20;99.90;;;;;;4089100;28;20110;-67
2023/01/26 05:30:34;;;;;;;78.53;37.30;;;2.30;99.90;;;;;;4091688;28;20616;-67
2023/01/26 05:32:35;;;;;;;78.55;35.45;;;2.20;99.90;;;;;;4092010;28;20043;-67
2023/01/26 05:34:36;;;;;;;90.20;40.05;;;2.20;99.90;;;;;;4091786;28;20039;-67
2023/01/26 05:36:37;;;;;;;75.07;35.30;;;2.20;99.90;;;;;;4090897;28;20050;-67
2023/01/26 05:38:37;;;;;;;80.22;36.13;;;2.20;99.90;;;;;;4094519;28;20071;-67
2023/01/26 05:40:38;;;;;;;75.70;36.08;;;2.20;99.90;;;;;;4092595;28;20448;-67
2023/01/26 05:42:38;;;;;;;75.25;34.78;;;2.20;99.90;;;;;;4093810;28;20044;-67
2023/01/26 05:44:39;;;;;;;74.60;34.17;;;2.30;99.90;;;;;;4093148;28;20090;-67
2023/01/26 05:46:39;;;;;;;68.15;31.25;;;2.20;99.90;;;;;;4091477;28;20478;-67
2023/01/26 05:48:40;;;;;;;77.43;35.70;;;2.30;99.90;;;;;;4090920;28;20031;-67
2023/01/26 05:50:41;;;;;;;76.00;35.65;;;2.20;99.90;;;;;;4083743;28;20045;-68
2023/01/26 05:52:45;;;;;;;73.82;33.60;;;2.30;99.90;;;;;;4088205;28;20095;-67
2023/01/26 05:54:46;;;;;;;67.00;32.40;;;2.30;99.90;;;;;;4088034;28;20052;-66
2023/01/26 05:56:47;;;;;;;70.20;31.90;;;2.30;99.90;;;;;;4079733;28;20041;-67
2023/01/26 05:58:47;;;;;;;68.90;31.90;;;2.30;99.90;;;;;;4093016;28;20517;-67
2023/01/26 06:00:48;;;;;;;74.78;33.85;;;2.30;99.90;;;;;;4089728;28;20043;-66
2023/01/26 06:02:49;;;;;;;71.22;32.85;;;2.30;99.90;;;;;;4086294;28;20414;-67
2023/01/26 06:04:49;;;;;;;77.68;34.55;;;2.30;99.90;;;;;;4091617;28;20023;-67
2023/01/26 06:06:54;;;;;;;72.70;32.47;;;2.30;99.90;;;;;;4096497;28;20094;-66
2023/01/26 06:08:54;;;;;;;67.57;31.42;;;2.30;99.90;;;;;;4094247;28;20059;-67
2023/01/26 06:11:00;;;;;;;70.78;33.88;;;2.30;99.90;;;;;;4088225;28;20357;-67
2023/01/26 06:13:00;;;;;;;73.18;33.47;;;2.30;99.90;;;;;;4094372;28;20040;-67
2023/01/26 06:15:01;;;;;;;73.50;34.20;;;2.30;99.90;;;;;;4098343;28;20063;-67
2023/01/26 06:17:02;;;;;;;70.35;32.03;;;2.30;99.90;;;;;;4094300;28;20490;-67
2023/01/26 06:19:03;;;;;;;69.35;32.28;;;2.30;99.90;;;;;;4090457;28;20051;-67
2023/01/26 06:21:04;;;;;;;67.07;31.65;;;2.30;99.90;;;;;;4091035;28;20051;-67
2023/01/26 06:23:06;;;;;;;76.28;34.38;;;2.40;99.90;;;;;;4083830;28;20050;-67
2023/01/26 06:25:07;;;;;;;70.32;32.70;;;2.30;99.90;;;;;;4088887;28;20097;-67
2023/01/26 06:27:12;;;;;;;61.67;30.23;;;2.30;99.90;;;;;;4084315;28;20043;-67
2023/01/26 06:29:13;;;;;;;63.22;29.58;;;2.40;99.90;;;;;;4090825;28;20043;-69
2023/01/26 06:31:14;;;;;;;60.60;28.95;;;2.40;99.90;;;;;;4074426;28;20404;-66
2023/01/26 06:33:14;;;;;;;62.55;30.45;;;2.40;99.90;;;;;;4089829;28;20664;-65
2023/01/26 06:35:15;;;;;;;65.38;30.65;;;2.40;99.90;;;;;;4089309;28;20503;-66
2023/01/26 06:37:15;;;;;;;66.63;31.75;;;2.40;99.90;;;;;;4086348;28;20416;-70
2023/01/26 06:39:16;;;;;;;66.88;32.15;;;2.40;99.90;;;;;;4085693;28;20295;-68
2023/01/26 06:41:17;;;;;;;70.35;32.65;;;2.40;99.90;;;;;;4092193;28;20082;-68
2023/01/26 06:43:18;;;;;;;64.25;29.80;;;2.40;99.90;;;;;;4072708;29;20052;-68
2023/01/26 06:45:19;;;;;;;64.80;30.30;;;2.40;99.90;;;;;;4089282;28;20126;-68
2023/01/26 06:47:20;;;;;;;61.03;29.73;;;2.50;99.90;;;;;;4090711;28;20043;-68
2023/01/26 06:49:20;;;;;;;67.45;31.27;;;2.50;99.90;;;;;;4089830;28;20110;-68
2023/01/26 06:51:53;;;;;;;65.60;30.95;;;2.50;99.90;;;;;;4074514;29;20565;-68
2023/01/26 06:53:56;;;;;;;65.97;31.27;;;2.50;99.90;;;;;;4089912;28;20035;-66
2023/01/26 06:55:57;;;;;;;65.65;30.77;;;2.50;99.90;;;;;;4089663;28;20042;-68
2023/01/26 06:57:58;;;;;;;64.93;31.17;;;2.50;99.90;;;;;;4088498;28;20051;-68
2023/01/26 06:59:58;;;;;;;66.38;31.20;;;2.50;99.90;;;;;;4091713;28;20106;-67
2023/01/26 07:01:59;;;;;;;61.08;29.30;;;2.50;99.90;;;;;;4085991;28;20037;-67
2023/01/26 07:04:00;;;;;;;64.78;30.98;;;2.50;99.90;;;;;;4084770;28;20098;-67
2023/01/26 07:06:00;;;;;;;60.45;29.15;;;2.50;99.90;;;;;;4088271;28;20474;-68
2023/01/26 07:08:03;;;;;;;64.28;31.48;;;2.50;99.90;;;;;;4078601;28;20122;-67
2023/01/26 07:10:05;;;;;;;66.15;31.30;;;2.50;99.90;;;;;;4074444;29;20044;-68
2023/01/26 07:12:06;;;;;;;63.50;30.02;;;2.50;99.90;;;;;;4056726;29;20067;-68
2023/01/26 07:14:07;;;;;;;60.25;29.33;;;2.50;99.90;;;;;;4069753;29;20049;-67
2023/01/26 07:16:11;;;;;;;61.55;29.55;;;2.50;99.90;;;;;;4064834;29;20051;-67
2023/01/26 07:18:11;;;;;;;63.97;30.20;;;2.50;99.90;;;;;;4063949;29;20052;-66
2023/01/26 07:20:12;;;;;;;64.45;30.10;;;2.50;99.90;;;;;;4062874;29;20044;-67
2023/01/26 07:22:13;;;;;;;63.65;30.10;;;2.50;99.90;;;;;;4064720;29;20047;-66
2023/01/26 07:24:14;;;;;;;61.08;30.05;;;2.50;99.90;;;;;;4064585;29;20381;-66
2023/01/26 07:26:15;;;;;;;61.85;29.00;;;2.50;99.90;;;;;;4071581;29;20032;-67
2023/01/26 07:28:15;;;;;;;59.42;30.95;;;2.50;99.90;;;;;;4073136;29;20470;-66
2023/01/26 07:30:16;;;;;;;63.55;30.77;;;2.50;99.90;;;;;;4062700;29;20474;-66
2023/01/26 07:32:17;;;;;;;58.80;28.73;;;2.50;99.90;;;;;;4063862;29;20043;-67
2023/01/26 07:34:17;;;;;;;55.90;28.27;;;2.50;99.90;;;;;;4066276;29;20043;-67
2023/01/26 07:36:18;;;;;;;54.45;26.35;;;2.50;99.90;;;;;;4061575;29;21437;-67
2023/01/26 07:38:19;;;;;;;54.58;26.42;;;2.50;99.90;;;;;;4062452;29;20126;-67
2023/01/26 07:40:19;;;;;;;53.38;26.42;;;2.50;99.90;;;;;;4061669;29;20044;-67
2023/01/26 07:42:20;;;;;;;58.80;27.70;;;2.50;99.90;;;;;;4067824;29;20047;-67
2023/01/26 07:44:21;;;;;;;54.97;26.30;;;2.60;99.90;;;;;;4070950;29;20498;-67
2023/01/26 07:46:22;;;;;;;53.88;26.58;;;2.60;99.90;;;;;;4053274;29;20055;-68
2023/01/26 07:48:23;;;;;;;52.20;25.55;;;2.60;99.90;;;;;;4064751;29;20036;-67
2023/01/26 07:50:25;;;;;;;58.45;26.85;;;2.60;99.90;;;;;;4067122;29;21331;-67
2023/01/26 07:52:26;;;;;;;55.20;25.02;;;2.60;99.90;;;;;;4058431;29;20032;-68
2023/01/26 07:54:27;;;;;;;53.50;25.75;;;2.60;99.90;;;;;;4066573;29;20075;-67
2023/01/26 07:56:27;;;;;;;57.45;27.02;;;2.60;99.90;;;;;;4058222;29;20055;-67
2023/01/26 07:58:28;;;;;;;57.53;26.55;;;2.60;99.90;;;;;;4055515;29;20043;-68
2023/01/26 08:00:28;;;;;;;53.28;26.15;;;2.60;99.90;;;;;;4062734;29;20503;-67
2023/01/26 08:02:29;;;;;;;51.60;25.33;;;2.60;99.90;;;;;;4066652;29;20039;-68
2023/01/26 08:04:31;;;;;;;53.80;24.77;;;2.60;99.90;;;;;;4069069;29;20574;-68
2023/01/26 08:06:31;;;;;;;60.63;27.83;;;2.60;99.90;;;;;;4065017;29;20640;-68
2023/01/26 08:08:33;;;;;;;58.05;27.75;;;2.60;99.90;;;;;;4063729;28;20278;-68
2023/01/26 08:10:33;;;;;;;58.75;27.98;;;2.60;99.90;;;;;;4064124;29;20491;-68
2023/01/26 08:12:34;;;;;;;63.63;29.75;;;2.60;99.90;;;;;;4067862;29;20072;-68
2023/01/26 08:14:35;;;;;;;61.30;29.52;;;2.60;99.90;;;;;;4053346;29;20597;-68
2023/01/26 08:16:35;;;;;;;63.33;29.77;;;2.60;99.90;;;;;;4068677;29;20102;-67
2023/01/26 08:18:41;;;;;;;56.25;27.77;;;2.60;99.90;;;;;;4065018;29;20091;-68
2023/01/26 08:20:57;;;;;;;62.20;28.73;;;2.60;99.90;;;;;;4070657;29;20510;-68
2023/01/26 08:22:57;;;;;;;55.58;27.70;;;2.60;99.90;;;;;;4071744;29;20027;-67
2023/01/26 08:24:58;;;;;;;71.30;32.13;;;2.60;99.90;;;;;;4071276;29;20094;-67
2023/01/26 08:26:58;;;;;;;66.00;30.25;;;2.70;99.90;;;;;;4071118;29;20043;-67
2023/01/26 08:28:59;;;;;;;62.03;29.10;;;2.70;99.90;;;;;;4064193;29;20055;-68
2023/01/26 08:31:20;;;;;;;61.90;29.42;;;2.60;99.90;;;;;;4069002;29;20035;-67
2023/01/26 08:33:21;;;;;;;65.25;29.58;;;2.60;99.90;;;;;;4068553;29;20487;-67
2023/01/26 08:35:22;;;;;;;55.67;27.38;;;2.60;99.90;;;;;;4070467;29;21314;-67
2023/01/26 08:37:22;;;;;;;56.20;26.45;;;2.60;99.90;;;;;;4071170;29;20050;-68
2023/01/26 08:39:23;;;;;;;66.57;30.95;;;2.60;99.90;;;;;;4071082;29;20035;-68
2023/01/26 08:41:24;;;;;;;65.97;31.17;;;2.60;99.90;;;;;;4069121;29;20056;-68
2023/01/26 08:43:25;;;;;;;59.88;28.85;;;2.60;99.90;;;;;;4069171;29;20113;-67
2023/01/26 08:45:25;;;;;;;64.40;30.60;;;2.60;99.90;;;;;;4068808;29;20078;-67
2023/01/26 08:47:26;;;;;;;63.58;29.60;;;2.60;99.90;;;;;;4068254;29;20039;-67
2023/01/26 08:49:26;;;;;;;59.53;27.63;;;2.60;99.90;;;;;;4063404;29;20051;-67
2023/01/26 08:51:27;;;;;;;63.72;30.05;;;2.60;99.90;;;;;;4074551;29;20432;-67
2023/01/26 08:53:33;;;;;;;62.17;28.80;;;2.60;99.90;;;;;;4074561;29;20684;-67
2023/01/26 08:55:34;;;;;;;58.45;27.13;;;2.60;99.90;;;;;;4069838;28;20044;-67
2023/01/26 08:57:34;;;;;;;58.55;27.35;;;2.60;99.90;;;;;;4073954;29;20534;-67
2023/01/26 08:59:35;;;;;;;56.78;27.58;;;2.60;99.90;;;;;;4071431;28;20069;-68
2023/01/26 09:01:36;;;;;;;54.55;26.27;;;2.60;99.90;;;;;;4067690;29;21218;-67
2023/01/26 09:03:37;;;;;;;54.33;25.05;;;2.60;99.90;;;;;;4051840;29;20496;-69
2023/01/26 09:05:39;;;;;;;51.65;25.52;;;2.60;99.90;;;;;;4074984;29;20038;-67
2023/01/26 09:07:39;;;;;;;47.17;22.42;;;2.60;99.90;;;;;;4072106;29;20550;-67
2023/01/26 09:09:40;;;;;;;49.00;22.98;;;2.60;99.90;;;;;;4070642;29;20118;-68
2023/01/26 09:11:40;;;;;;;52.17;24.88;;;2.60;99.90;;;;;;4068703;29;20051;-67
2023/01/26 09:13:41;;;;;;;45.60;22.70;;;2.60;99.90;;;;;;4072804;29;20381;-68
2023/01/26 09:15:42;;;;;;;45.92;22.33;;;2.60;99.90;;;;;;4067874;29;20161;-67
2023/01/26 09:17:42;;;;;;;49.08;23.17;;;2.60;99.90;;;;;;4071631;29;20035;-68
2023/01/26 09:19:43;;;;;;;46.25;22.42;;;2.60;99.90;;;;;;4059439;29;20511;-67
2023/01/26 09:21:44;;;;;;;44.00;22.48;;;2.70;99.90;;;;;;4069323;29;20048;-68
2023/01/26 09:23:44;;;;;;;39.00;20.08;;;2.70;99.90;;;;;;4069649;29;20047;-68
2023/01/26 09:25:45;;;;;;;43.72;21.40;;;2.70;99.90;;;;;;4065432;29;20043;-67
2023/01/26 09:27:45;;;;;;;48.15;23.02;;;2.70;99.90;;;;;;4066714;29;20123;-69
2023/01/26 09:29:46;;;;;;;42.90;21.63;;;2.70;99.90;;;;;;4065479;29;20028;-68
2023/01/26 09:31:46;;;;;;;42.58;20.92;;;2.70;99.90;;;;;;4066280;29;20036;-68
2023/01/26 09:33:48;;;;;;;43.10;20.85;;;2.70;99.90;;;;;;4071418;29;20040;-67
2023/01/26 09:35:49;;;;;;;44.88;22.13;;;2.70;99.90;;;;;;4069997;29;20488;-67
2023/01/26 09:37:50;;;;;;;42.15;20.67;;;2.70;99.90;;;;;;4072440;29;20140;-67
2023/01/26 09:39:50;;;;;;;43.05;21.73;;;2.80;99.90;;;;;;4073624;28;20044;-67
2023/01/26 09:42:03;;;;;;;39.78;19.98;;;2.70;99.90;;;;;;4074701;29;20509;-68
2023/01/26 09:44:09;;;;;;;38.95;19.65;;;2.70;99.90;;;;;;4073500;29;20173;-68
2023/01/26 09:46:43;;;;;;;43.60;20.92;;;2.70;99.90;;;;;;4072737;29;20500;-67
2023/01/26 09:49:28;;;;;;;37.50;18.13;;;2.70;99.90;;;;;;4076012;29;20040;-68
2023/01/26 09:51:41;;;;;;;36.38;18.27;;;2.70;99.90;;;;;;4023739;29;20254;-66
2023/01/26 09:53:47;;;;;;;38.42;17.85;;;2.70;99.90;;;;;;4053591;29;20123;-67
2023/01/26 09:55:48;;;;;;;32.90;16.80;;;2.70;99.90;;;;;;4058922;29;20040;-68
2023/01/26 09:57:53;;;;;;;34.08;16.83;;;2.70;99.90;;;;;;4064625;29;20052;-68
2023/01/26 10:00:04;;;;;;;35.38;18.17;;;2.60;99.90;;;;;;4061909;29;20044;-68
2023/01/26 10:02:27;;;;;;;34.08;17.80;;;2.60;99.90;;;;;;4062263;29;20058;-68
2023/01/26 10:04:38;;;;;;;30.15;15.00;;;2.60;99.90;;;;;;4061899;29;20476;-68
2023/01/26 10:06:40;;;;;;;28.70;14.75;;;2.60;99.90;;;;;;4072395;29;20059;-68
2023/01/26 10:08:43;;;;;;;33.53;16.23;;;2.60;99.90;;;;;;4077332;29;20106;-68
2023/01/26 10:10:48;;;;;;;30.92;15.48;;;2.60;99.90;;;;;;4081925;28;20078;-68
2023/01/26 10:12:50;;;;;;;27.60;13.93;;;2.60;99.90;;;;;;4066851;29;20582;-68
2023/01/26 10:15:09;;;;;;;30.20;14.32;;;2.60;99.90;;;;;;4069762;29;20052;-68
2023/01/26 10:17:27;;;;;;;25.83;13.65;;;2.60;99.90;;;;;;4059038;29;20044;-68
2023/01/26 10:19:40;;;;;;;27.45;13.32;;;2.60;99.90;;;;;;4066549;29;20113;-66
2023/01/26 10:21:45;;;;;;;27.27;13.38;;;2.60;99.90;;;;;;4054935;29;20040;-65
2023/01/26 10:23:47;;;;;;;25.40;13.50;;;2.70;99.90;;;;;;4074381;28;20056;-66
2023/01/26 10:25:50;;;;;;;24.83;12.80;;;2.70;99.90;;;;;;4072163;28;20499;-67
2023/01/26 10:27:51;;;;;;;;;;;2.70;99.90;;;;;;4074099;29;20048;-67
2023/01/26 10:29:51;;;;;;;24.55;12.48;;;2.70;99.90;;;;;;4075306;29;20006;-66
2023/01/26 10:31:53;;;;;;;24.30;12.63;;;2.70;99.90;;;;;;4073296;29;20039;-67
2023/01/26 10:34:01;;;;;;;21.58;12.07;;;2.70;99.90;;;;;;4076727;29;20673;-67
2023/01/26 10:36:05;;;;;;;26.95;12.55;;;2.70;99.90;;;;;;4072924;29;20410;-66
2023/01/26 10:38:31;;;;;;;20.92;11.38;;;2.70;99.90;;;;;;4075831;29;20059;-66
2023/01/26 10:40:43;;;;;;;24.48;12.25;;;2.80;99.90;;;;;;4072042;29;20110;-67
2023/01/26 10:42:55;;;;;;;23.70;12.60;;;2.80;99.90;;;;;;4073146;29;20071;-67
2023/01/26 10:44:57;;;;;;;23.52;11.98;;;2.80;99.90;;;;;;4076024;28;20044;-66
2023/01/26 10:47:14;;;;;;;24.00;12.73;;;2.80;99.90;;;;;;4073216;28;20040;-66
2023/01/26 10:49:16;;;;;;;22.38;12.32;;;2.90;99.90;;;;;;4076069;28;20352;-67
2023/01/26 10:51:22;;;;;;;21.80;12.07;;;2.80;99.90;;;;;;4072237;28;20067;-67
2023/01/26 10:53:28;;;;;;;23.73;12.30;;;2.80;99.90;;;;;;4076252;28;20067;-67
2023/01/26 10:55:31;;;;;;;23.20;12.43;;;2.90;99.90;;;;;;4076826;28;20735;-67
2023/01/26 10:57:37;;;;;;;25.02;12.85;;;2.90;99.90;;;;;;4073208;28;20136;-67
2023/01/26 10:59:45;;;;;;;25.27;13.38;;;2.90;99.90;;;;;;4074047;29;20047;-67
2023/01/26 11:01:59;;;;;;;29.55;14.57;;;2.90;99.90;;;;;;4067747;29;20032;-69
2023/01/26 11:04:05;;;;;;;27.50;13.70;;;2.80;99.90;;;;;;4075967;29;20043;-68
2023/01/26 11:06:13;;;;;;;25.30;13.25;;;2.80;99.90;;;;;;4075994;29;20062;-68
2023/01/26 11:08:40;;;;;;;27.88;13.60;;;2.80;99.90;;;;;;4074820;29;20059;-68
2023/01/26 11:10:51;;;;;;;28.48;14.20;;;2.80;99.90;;;;;;4078210;29;20039;-68
2023/01/26 11:13:16;;;;;;;26.77;12.98;;;2.80;99.90;;;;;;4087969;28;20046;-68
2023/01/26 11:15:20;;;;;;;27.50;13.93;;;2.80;99.90;;;;;;4082110;28;20063;-68
2023/01/26 11:17:24;;;;;;;29.02;13.20;;;2.80;99.90;;;;;;4089255;29;20047;-68
2023/01/26 11:19:55;;;;;;;27.83;13.55;;;2.80;99.90;;;;;;4090646;28;20075;-67
2023/01/26 11:22:05;;;;;;;28.63;13.85;;;2.80;99.90;;;;;;4071256;29;20075;-68
2023/01/26 11:24:20;;;;;;;25.98;12.77;;;2.80;99.90;;;;;;4084112;29;20446;-68
2023/01/26 11:26:29;;;;;;;28.50;13.98;;;2.80;99.90;;;;;;4085680;28;20043;-68